createdAt,value
2023-08-15T00:00:43.436Z,101253.56
2023-08-15T00:03:07.633Z,101248.09
2023-08-15T00:05:32.518Z,101226.03
2023-08-15T00:07:58.893Z,101203.81
2023-08-15T00:10:22.486Z,101187.78
2023-08-15T00:12:46.091Z,101156.56
2023-08-15T00:15:12.758Z,101145.13
2023-08-15T00:17:36.430Z,101134.59
2023-08-15T00:20:00.052Z,101122.88
2023-08-15T00:22:23.764Z,101114.63
2023-08-15T00:24:47.344Z,101107.50
2023-08-15T00:27:11.141Z,101095.47
2023-08-15T00:29:34.798Z,101088.78
2023-08-15T00:31:59.883Z,101072.28
2023-08-15T00:34:23.554Z,101054.69
2023-08-15T00:36:47.317Z,101035.34
2023-08-15T00:39:10.948Z,101035.25
2023-08-15T00:41:34.696Z,101017.94
2023-08-15T00:43:59.763Z,101024.06
2023-08-15T00:46:24.395Z,101044.28
2023-08-15T00:48:49.436Z,101046.16
2023-08-15T00:51:14.241Z,101072.94
2023-08-15T00:53:38.370Z,101105.03
2023-08-15T00:56:02.612Z,101121.53
2023-08-15T00:58:26.926Z,101102.63
2023-08-15T01:00:51.514Z,101102.44
2023-08-15T01:03:15.338Z,101083.81
2023-08-15T01:05:41.784Z,101086.16
2023-08-15T01:08:06.185Z,101086.50
2023-08-15T01:10:29.865Z,101083.31
2023-08-15T01:13:02.039Z,101089.38
2023-08-15T01:15:28.814Z,101094.69
2023-08-15T01:18:06.916Z,101106.25
2023-08-15T01:20:35.422Z,101102.97
2023-08-15T01:23:03.729Z,101112.59
2023-08-15T01:25:29.937Z,101110.06
2023-08-15T01:27:53.642Z,101112.50
2023-08-15T01:30:19.871Z,101115.63
2023-08-15T01:32:52.072Z,101113.63
2023-08-15T01:35:40.361Z,101124.81
2023-08-15T01:38:12.089Z,101115.34
2023-08-15T01:40:40.016Z,101113.00
2023-08-15T01:43:05.524Z,101107.72
2023-08-15T01:45:30.196Z,101096.56
2023-08-15T01:47:54.277Z,101101.16
2023-08-15T01:50:18.176Z,101091.94
2023-08-15T01:52:41.887Z,101084.09
2023-08-15T01:55:06.348Z,101078.50
2023-08-15T01:57:31.378Z,101081.97
2023-08-15T01:59:55.066Z,101071.69
2023-08-15T02:02:18.746Z,101076.56
2023-08-15T02:04:42.444Z,101071.47
2023-08-15T02:07:06.109Z,101065.59
2023-08-15T02:09:29.845Z,101051.53
2023-08-15T02:11:53.941Z,101044.28
2023-08-15T02:14:19.046Z,101048.59
2023-08-15T02:16:42.751Z,101045.78
2023-08-15T02:19:06.628Z,101037.13
2023-08-15T02:21:30.240Z,101032.69
2023-08-15T02:23:54.053Z,101035.50
2023-08-15T02:26:17.948Z,101028.56
2023-08-15T02:28:42.265Z,101034.25
2023-08-15T02:31:07.323Z,101038.13
2023-08-15T02:33:31.049Z,101032.16
2023-08-15T02:35:55.755Z,101028.56
2023-08-15T02:38:21.177Z,101024.75
2023-08-15T02:40:44.945Z,101019.78
2023-08-15T02:43:09.014Z,101013.06
2023-08-15T02:45:33.304Z,101013.84
2023-08-15T02:48:00.168Z,101005.84
2023-08-15T02:50:23.846Z,100995.88
2023-08-15T02:52:47.587Z,100996.53
2023-08-15T02:55:11.394Z,101001.31
2023-08-15T02:57:35.440Z,101002.28
2023-08-15T02:59:59.180Z,100995.75
2023-08-15T03:02:23.768Z,100997.66
2023-08-15T03:04:48.815Z,101001.69
2023-08-15T03:07:12.562Z,100996.53
2023-08-15T03:09:36.199Z,100994.84
2023-08-15T03:12:00.619Z,100994.41
2023-08-15T03:14:24.306Z,101001.22
2023-08-15T03:16:48.069Z,101006.31
2023-08-15T03:19:11.802Z,101005.84
2023-08-15T03:21:37.260Z,101008.97
2023-08-15T03:24:01.006Z,101005.00
2023-08-15T03:26:27.102Z,101015.69
2023-08-15T03:28:53.432Z,101014.19
2023-08-15T03:31:18.061Z,101019.28
2023-08-15T03:33:47.088Z,101028.22
2023-08-15T03:36:10.976Z,101040.41
2023-08-15T03:38:36.617Z,101051.81
2023-08-15T03:41:05.231Z,101044.25
2023-08-15T03:43:30.006Z,101047.19
2023-08-15T03:45:53.908Z,101045.88
2023-08-15T03:48:17.583Z,101045.88
2023-08-15T03:50:41.856Z,101044.38
2023-08-15T03:53:06.667Z,101054.28
2023-08-15T03:55:34.264Z,101043.13
2023-08-15T03:57:58.254Z,101057.22
2023-08-15T04:00:22.501Z,101055.03
2023-08-15T04:02:46.244Z,101052.88
2023-08-15T04:05:10.198Z,101062.22
2023-08-15T04:07:33.819Z,101064.28
2023-08-15T04:09:57.651Z,101075.22
2023-08-15T04:12:22.698Z,101085.56
2023-08-15T04:14:47.116Z,101091.25
2023-08-15T04:17:10.894Z,101092.75
2023-08-15T04:19:34.635Z,101092.28
2023-08-15T04:21:58.619Z,101086.72
2023-08-15T04:24:22.890Z,101095.28
2023-08-15T04:26:46.547Z,101096.78
2023-08-15T04:29:12.211Z,101100.09
2023-08-15T04:31:35.908Z,101106.69
2023-08-15T04:34:01.516Z,101106.97
2023-08-15T04:36:25.245Z,101109.13
2023-08-15T04:38:49.090Z,101102.06
2023-08-15T04:41:13.375Z,101097.84
2023-08-15T04:43:37.179Z,101105.38
2023-08-15T04:46:02.988Z,101109.34
2023-08-15T04:48:26.986Z,101107.06
2023-08-15T04:50:51.689Z,101107.34
2023-08-15T04:53:15.424Z,101112.72
2023-08-15T04:55:39.090Z,101113.75
2023-08-15T04:58:03.685Z,101110.66
2023-08-15T05:00:27.441Z,101109.06
2023-08-15T05:02:52.608Z,101098.69
2023-08-15T05:05:17.143Z,101105.75
2023-08-15T05:07:41.850Z,101107.72
2023-08-15T05:10:07.832Z,101103.19
2023-08-15T05:12:32.914Z,101110.94
2023-08-15T05:14:56.743Z,101109.59
2023-08-15T05:17:20.825Z,101108.63
2023-08-15T05:19:46.435Z,101116.69
2023-08-15T05:22:10.531Z,101109.53
2023-08-15T05:24:34.174Z,101105.94
2023-08-15T05:26:57.955Z,101109.16
2023-08-15T05:29:21.796Z,101112.56
2023-08-15T05:31:45.562Z,101113.28
2023-08-15T05:34:11.410Z,101113.06
2023-08-15T05:36:36.707Z,101106.38
2023-08-15T05:39:05.381Z,101115.81
2023-08-15T05:41:30.764Z,101119.59
2023-08-15T05:43:54.472Z,101124.47
2023-08-15T05:46:18.211Z,101126.16
2023-08-15T05:48:42.261Z,101130.81
2023-08-15T05:51:06.039Z,101121.63
2023-08-15T05:53:31.060Z,101118.66
2023-08-15T05:55:54.896Z,101124.72
2023-08-15T05:58:18.768Z,101127.34
2023-08-15T06:00:43.442Z,101127.03
2023-08-15T06:03:07.899Z,101140.63
2023-08-15T06:05:32.827Z,101135.41
2023-08-15T06:07:56.634Z,101127.38
2023-08-15T06:10:21.815Z,101127.50
2023-08-15T06:12:45.420Z,101130.91
2023-08-15T06:15:09.923Z,101126.44
2023-08-15T06:17:33.637Z,101124.41
2023-08-15T06:19:57.529Z,101128.03
2023-08-15T06:22:21.229Z,101120.03
2023-08-15T06:24:45.046Z,101119.97
2023-08-15T06:27:10.355Z,101117.94
2023-08-15T06:29:34.241Z,101119.78
2023-08-15T06:32:00.682Z,101116.19
2023-08-15T06:34:24.335Z,101119.16
2023-08-15T06:36:48.229Z,101124.94
2023-08-15T06:39:12.867Z,101120.41
2023-08-15T06:41:36.669Z,101130.72
2023-08-15T06:44:02.400Z,101127.38
2023-08-15T06:46:26.123Z,101128.81
2023-08-15T06:48:50.036Z,101131.88
2023-08-15T06:51:13.662Z,101135.25
2023-08-15T06:53:37.306Z,101137.03
2023-08-15T06:56:01.152Z,101133.41
2023-08-15T06:58:24.838Z,101133.03
2023-08-15T07:00:49.908Z,101128.69
2023-08-15T07:03:14.736Z,101133.31
2023-08-15T07:05:38.432Z,101129.47
2023-08-15T07:08:04.470Z,101121.06
2023-08-15T07:10:28.298Z,101125.59
2023-08-15T07:12:52.013Z,101131.34
2023-08-15T07:15:15.695Z,101119.09
2023-08-15T07:17:41.618Z,101124.44
2023-08-15T07:20:07.081Z,101111.03
2023-08-15T07:22:30.719Z,101110.91
2023-08-15T07:24:54.436Z,101115.69
2023-08-15T07:27:18.236Z,101114.59
2023-08-15T07:29:41.903Z,101132.34
2023-08-15T07:32:07.421Z,101130.66
2023-08-15T07:34:32.589Z,101135.84
2023-08-15T07:36:56.482Z,101136.22
2023-08-15T07:39:20.179Z,101135.75
2023-08-15T07:41:44.550Z,101140.59
2023-08-15T07:44:08.615Z,101128.56
2023-08-15T07:46:32.368Z,101117.06
2023-08-15T07:48:58.204Z,101114.56
2023-08-15T07:51:23.583Z,101120.34
2023-08-15T07:53:47.227Z,101132.22
2023-08-15T07:56:10.922Z,101113.56
2023-08-15T07:58:36.635Z,101112.91
2023-08-15T08:01:00.354Z,101121.63
2023-08-15T08:03:24.003Z,101137.88
2023-08-15T08:05:50.009Z,101137.97
2023-08-15T08:08:15.220Z,101144.56
2023-08-15T08:10:39.002Z,101142.31
2023-08-15T08:13:02.713Z,101146.09
2023-08-15T08:15:26.531Z,101147.28
2023-08-15T08:17:50.391Z,101144.16
2023-08-15T08:20:14.569Z,101139.41
2023-08-15T08:22:38.214Z,101150.44
2023-08-15T08:25:18.501Z,101163.28
2023-08-15T08:27:42.224Z,101150.97
2023-08-15T08:30:07.698Z,101147.25
2023-08-15T08:32:31.407Z,101135.72
2023-08-15T08:34:55.022Z,101147.97
2023-08-15T08:37:18.700Z,101164.19
2023-08-15T08:39:42.593Z,101162.94
2023-08-15T08:42:08.079Z,101148.88
2023-08-15T08:44:34.176Z,101154.63
2023-08-15T08:46:58.802Z,101157.53
2023-08-15T08:49:23.107Z,101153.91
2023-08-15T08:51:48.173Z,101164.97
2023-08-15T08:54:11.819Z,101168.66
2023-08-15T08:56:35.956Z,101171.41
2023-08-15T08:59:04.549Z,101172.53
2023-08-15T09:01:32.332Z,101177.94
2023-08-15T09:03:57.460Z,101178.03
2023-08-15T09:06:21.315Z,101174.19
2023-08-15T09:08:44.879Z,101179.25
2023-08-15T09:11:08.787Z,101185.66
2023-08-15T09:13:32.451Z,101196.28
2023-08-15T09:15:59.561Z,101195.44
2023-08-15T09:18:24.226Z,101204.22
2023-08-15T09:20:47.967Z,101190.03
2023-08-15T09:23:11.833Z,101178.31
2023-08-15T09:25:38.245Z,101181.22
2023-08-15T09:28:02.132Z,101188.13
2023-08-15T09:30:25.785Z,101180.75
2023-08-15T09:32:51.130Z,101171.72
2023-08-15T09:35:16.734Z,101177.38
2023-08-15T09:37:44.186Z,101173.69
2023-08-15T09:40:11.810Z,101165.72
2023-08-15T09:42:35.471Z,101148.69
2023-08-15T09:44:59.496Z,101140.53
2023-08-15T09:47:24.169Z,101147.44
2023-08-15T09:49:53.489Z,101165.00
2023-08-15T09:52:18.094Z,101159.09
2023-08-15T09:54:43.884Z,101158.72
2023-08-15T09:57:07.658Z,101160.06
2023-08-15T09:59:31.687Z,101158.63
2023-08-15T10:01:56.303Z,101146.38
2023-08-15T10:04:22.614Z,101151.41
2023-08-15T10:06:48.303Z,101157.75
2023-08-15T10:09:13.712Z,101149.91
2023-08-15T10:11:42.498Z,101140.47
2023-08-15T10:14:06.639Z,101133.78
2023-08-15T10:16:30.678Z,101126.09
2023-08-15T10:18:56.584Z,101127.81
2023-08-15T10:21:20.257Z,101124.84
2023-08-15T10:23:45.327Z,101129.66
2023-08-15T10:26:09.317Z,101120.03
2023-08-15T10:28:36.497Z,101116.19
2023-08-15T10:31:00.146Z,101090.22
2023-08-15T10:33:26.380Z,101087.72
2023-08-15T10:35:53.236Z,101082.88
2023-08-15T10:38:18.345Z,101087.19
2023-08-15T10:40:46.004Z,101082.09
2023-08-15T10:43:12.306Z,101075.72
2023-08-15T10:45:38.971Z,101083.91
2023-08-15T10:48:05.000Z,101081.50
2023-08-15T10:50:29.955Z,101090.00
2023-08-15T10:53:00.061Z,101100.00
2023-08-15T10:55:28.916Z,101105.22
2023-08-15T10:57:54.623Z,101114.63
2023-08-15T11:00:20.226Z,101120.59
2023-08-15T11:02:43.915Z,101111.19
2023-08-15T11:05:08.703Z,101109.09
2023-08-15T11:07:32.470Z,101107.50
2023-08-15T11:09:56.084Z,101111.94
2023-08-15T11:12:20.163Z,101119.63
2023-08-15T11:14:45.227Z,101110.06
2023-08-15T11:17:09.107Z,101116.19
2023-08-15T11:19:35.326Z,101115.88
2023-08-15T11:22:00.100Z,101109.72
2023-08-15T11:24:24.424Z,101108.22
2023-08-15T11:26:49.172Z,101113.31
2023-08-15T11:29:14.246Z,101112.56
2023-08-15T11:31:40.753Z,101119.66
2023-08-15T11:34:05.285Z,101122.06
2023-08-15T11:36:28.981Z,101124.91
2023-08-15T11:38:53.120Z,101122.16
2023-08-15T11:41:16.922Z,101129.75
2023-08-15T11:43:40.989Z,101122.91
2023-08-15T11:46:05.160Z,101128.94
2023-08-15T11:48:31.353Z,101125.72
2023-08-15T11:50:55.042Z,101120.41
2023-08-15T11:53:20.474Z,101128.25
2023-08-15T11:55:45.959Z,101124.53
2023-08-15T11:58:25.156Z,101129.72
2023-08-15T12:00:48.875Z,101128.03
2023-08-15T12:03:12.852Z,101118.16
2023-08-15T12:05:37.980Z,101126.72
2023-08-15T12:08:01.600Z,101124.91
2023-08-15T12:10:26.163Z,101115.16
2023-08-15T12:12:50.019Z,101110.97
2023-08-15T12:15:15.703Z,101109.78
2023-08-15T12:17:40.490Z,101113.16
2023-08-15T12:20:06.203Z,101115.34
2023-08-15T12:22:31.428Z,101110.41
2023-08-15T12:24:55.118Z,101113.47
2023-08-15T12:27:19.580Z,101108.75
2023-08-15T12:29:44.719Z,101107.91
2023-08-15T12:32:27.552Z,101110.94
2023-08-15T12:34:51.254Z,101104.81
2023-08-15T12:37:14.920Z,101104.28
2023-08-15T12:39:39.947Z,101109.16
2023-08-15T12:42:04.306Z,101107.34
2023-08-15T12:44:28.205Z,101096.31
2023-08-15T12:46:53.686Z,101101.44
2023-08-15T12:49:17.331Z,101100.88
2023-08-15T12:51:42.058Z,101106.19
2023-08-15T12:54:06.444Z,101105.38
2023-08-15T12:56:31.541Z,101098.19
2023-08-15T12:58:55.153Z,101098.97
2023-08-15T13:01:18.867Z,101106.78
2023-08-15T13:03:42.531Z,101102.22
2023-08-15T13:06:06.236Z,101093.66
2023-08-15T13:08:29.869Z,101100.66
2023-08-15T13:10:53.570Z,101102.81
2023-08-15T13:13:18.585Z,101096.88
2023-08-15T13:15:42.264Z,101098.13
2023-08-15T13:18:07.111Z,101090.31
2023-08-15T13:20:30.939Z,101095.06
2023-08-15T13:22:54.782Z,101093.66
2023-08-15T13:25:18.652Z,101090.50
2023-08-15T13:27:42.327Z,101098.88
2023-08-15T13:30:09.569Z,101094.19
2023-08-15T13:32:35.237Z,101096.47
2023-08-15T13:34:59.031Z,101093.91
2023-08-15T13:37:22.643Z,101083.94
2023-08-15T13:39:46.295Z,101095.00
2023-08-15T13:42:14.838Z,101087.91
2023-08-15T13:44:47.225Z,101097.59
2023-08-15T13:47:12.210Z,101088.59
2023-08-15T13:49:35.853Z,101084.41
2023-08-15T13:51:59.474Z,101080.13
2023-08-15T13:54:24.076Z,101084.72
2023-08-15T13:56:47.720Z,101083.47
2023-08-15T13:59:11.425Z,101081.84
2023-08-15T14:01:35.034Z,101087.06
2023-08-15T14:04:00.152Z,101083.84
2023-08-15T14:06:23.891Z,101074.19
2023-08-15T14:08:47.606Z,101076.25
2023-08-15T14:11:11.280Z,101079.50
2023-08-15T14:13:35.624Z,101082.47
2023-08-15T14:15:59.253Z,101081.09
2023-08-15T14:18:22.967Z,101076.94
2023-08-15T14:20:47.977Z,101090.78
2023-08-15T14:23:11.716Z,101082.59
2023-08-15T14:25:35.755Z,101084.97
2023-08-15T14:27:59.997Z,101087.78
2023-08-15T14:30:23.837Z,101090.19
2023-08-15T14:32:47.668Z,101094.59
2023-08-15T14:35:11.392Z,101092.81
2023-08-15T14:37:37.156Z,101096.31
2023-08-15T14:40:00.883Z,101087.53
2023-08-15T14:42:24.812Z,101093.22
2023-08-15T14:44:48.509Z,101078.38
2023-08-15T14:47:12.309Z,101075.66
2023-08-15T14:49:35.891Z,101074.09
2023-08-15T14:51:59.569Z,101069.09
2023-08-15T14:54:24.635Z,101068.28
2023-08-15T14:56:48.379Z,101074.88
2023-08-15T14:59:11.987Z,101078.53
2023-08-15T15:01:35.843Z,101070.19
2023-08-15T15:03:59.628Z,101068.53
2023-08-15T15:06:23.440Z,101073.59
2023-08-15T15:08:47.086Z,101075.50
2023-08-15T15:11:12.178Z,101080.00
2023-08-15T15:13:35.803Z,101080.25
2023-08-15T15:16:00.845Z,101078.31
2023-08-15T15:18:24.590Z,101070.50
2023-08-15T15:20:48.582Z,101078.91
2023-08-15T15:23:12.241Z,101080.19
2023-08-15T15:25:36.005Z,101082.50
2023-08-15T15:28:01.051Z,101086.38
2023-08-15T15:30:24.963Z,101090.78
2023-08-15T15:32:48.589Z,101098.06
2023-08-15T15:35:13.606Z,101098.34
2023-08-15T15:37:37.279Z,101098.56
2023-08-15T15:40:02.659Z,101111.69
2023-08-15T15:42:26.272Z,101105.25
2023-08-15T15:44:51.442Z,101098.28
2023-08-15T15:47:15.313Z,101101.84
2023-08-15T15:49:39.237Z,101096.22
2023-08-15T15:52:02.928Z,101105.09
2023-08-15T15:54:26.707Z,101106.19
2023-08-15T15:56:50.294Z,101105.91
2023-08-15T15:59:14.109Z,101106.84
2023-08-15T16:01:39.615Z,101109.38
2023-08-15T16:04:03.805Z,101106.78
2023-08-15T16:06:28.475Z,101110.09
2023-08-15T16:08:52.286Z,101115.94
2023-08-15T16:11:15.988Z,101109.78
2023-08-15T16:13:39.859Z,101113.16
2023-08-15T16:16:03.750Z,101121.47
2023-08-15T16:18:28.967Z,101128.63
2023-08-15T16:20:52.975Z,101129.25
2023-08-15T16:23:17.279Z,101134.72
2023-08-15T16:25:40.835Z,101142.91
2023-08-15T16:28:04.871Z,101142.84
2023-08-15T16:30:29.123Z,101143.41
2023-08-15T16:32:54.848Z,101136.09
2023-08-15T16:35:20.126Z,101143.03
2023-08-15T16:37:46.360Z,101135.91
2023-08-15T16:40:11.238Z,101142.25
2023-08-15T16:42:34.931Z,101141.94
2023-08-15T16:44:58.623Z,101139.09
2023-08-15T16:47:23.568Z,101151.00
2023-08-15T16:49:47.243Z,101148.13
2023-08-15T16:52:12.392Z,101147.91
2023-08-15T16:54:36.049Z,101137.06
2023-08-15T16:56:59.763Z,101138.69
2023-08-15T16:59:23.420Z,101131.31
2023-08-15T17:01:47.242Z,101135.09
2023-08-15T17:04:11.197Z,101135.25
2023-08-15T17:06:35.072Z,101132.66
2023-08-15T17:09:00.146Z,101137.41
2023-08-15T17:11:23.921Z,101126.56
2023-08-15T17:13:48.082Z,101135.00
2023-08-15T17:16:11.752Z,101136.25
2023-08-15T17:18:35.371Z,101141.91
2023-08-15T17:20:59.058Z,101134.66
2023-08-15T17:23:22.655Z,101136.28
2023-08-15T17:25:49.225Z,101129.09
2023-08-15T17:28:13.860Z,101133.69
2023-08-15T17:30:37.516Z,101133.63
2023-08-15T17:33:01.220Z,101142.88
2023-08-15T17:35:25.058Z,101147.22
2023-08-15T17:37:48.993Z,101152.09
2023-08-15T17:40:14.156Z,101157.28
2023-08-15T17:42:39.142Z,101159.75
2023-08-15T17:45:02.866Z,101156.75
2023-08-15T17:47:26.501Z,101150.03
2023-08-15T17:49:50.851Z,101144.75
2023-08-15T17:52:14.465Z,101143.22
2023-08-15T17:54:38.259Z,101149.66
2023-08-15T17:57:01.884Z,101175.69
2023-08-15T17:59:26.955Z,101177.25
2023-08-15T18:01:50.518Z,101173.78
2023-08-15T18:04:14.206Z,101179.06
2023-08-15T18:06:38.569Z,101185.09
2023-08-15T18:09:02.863Z,101175.78
2023-08-15T18:11:26.599Z,101184.38
2023-08-15T18:13:50.291Z,101188.47
2023-08-15T18:16:15.459Z,101193.03
2023-08-15T18:18:39.588Z,101193.38
2023-08-15T18:21:03.966Z,101194.72
2023-08-15T18:23:27.658Z,101204.22
2023-08-15T18:25:51.324Z,101216.63
2023-08-15T18:28:15.031Z,101220.53
2023-08-15T18:30:38.651Z,101225.69
2023-08-15T18:33:03.800Z,101226.19
2023-08-15T18:35:27.405Z,101228.41
2023-08-15T18:37:51.047Z,101223.38
2023-08-15T18:40:17.238Z,101228.53
2023-08-15T18:42:40.918Z,101233.78
2023-08-15T18:45:05.577Z,101232.59
2023-08-15T18:47:29.405Z,101231.59
2023-08-15T18:49:54.420Z,101233.50
2023-08-15T18:52:18.082Z,101222.75
2023-08-15T18:54:41.718Z,101237.53
2023-08-15T18:57:05.921Z,101220.47
2023-08-15T18:59:29.515Z,101222.78
2023-08-15T19:01:53.261Z,101233.63
2023-08-15T19:04:16.918Z,101245.56
2023-08-15T19:06:41.913Z,101238.44
2023-08-15T19:09:06.208Z,101237.44
2023-08-15T19:11:29.883Z,101251.41
2023-08-15T19:13:53.522Z,101259.00
2023-08-15T19:16:17.342Z,101250.72
2023-08-15T19:18:41.179Z,101246.72
2023-08-15T19:21:04.902Z,101243.56
2023-08-15T19:23:29.983Z,101256.81
2023-08-15T19:25:53.709Z,101268.28
2023-08-15T19:28:17.630Z,101266.16
2023-08-15T19:30:42.880Z,101267.06
2023-08-15T19:33:07.080Z,101267.31
2023-08-15T19:35:30.914Z,101259.84
2023-08-15T19:37:54.734Z,101262.69
2023-08-15T19:40:19.986Z,101267.19
2023-08-15T19:42:45.772Z,101268.25
2023-08-15T19:45:11.535Z,101273.16
2023-08-15T19:47:35.455Z,101294.41
2023-08-15T19:49:59.290Z,101296.06
2023-08-15T19:52:23.232Z,101284.19
2023-08-15T19:54:47.146Z,101289.28
2023-08-15T19:57:12.193Z,101299.47
2023-08-15T19:59:36.189Z,101294.75
2023-08-15T20:01:59.835Z,101287.06
2023-08-15T20:04:24.827Z,101297.94
2023-08-15T20:06:48.490Z,101283.75
2023-08-15T20:09:13.096Z,101287.63
2023-08-15T20:11:36.815Z,101292.72
2023-08-15T20:14:01.963Z,101285.59
2023-08-15T20:16:26.595Z,101293.81
2023-08-15T20:18:50.282Z,101290.66
2023-08-15T20:21:14.345Z,101280.91
2023-08-15T20:23:38.111Z,101284.69
2023-08-15T20:26:02.734Z,101283.59
2023-08-15T20:28:26.594Z,101286.25
2023-08-15T20:30:51.687Z,101296.06
2023-08-15T20:33:15.739Z,101292.00
2023-08-15T20:35:39.533Z,101293.25
2023-08-15T20:38:03.311Z,101300.38
2023-08-15T20:40:26.925Z,101305.31
2023-08-15T20:42:50.609Z,101295.72
2023-08-15T20:45:15.010Z,101295.50
2023-08-15T20:47:40.589Z,101300.13
2023-08-15T20:50:04.526Z,101297.97
2023-08-15T20:52:28.231Z,101289.97
2023-08-15T20:54:51.836Z,101292.50
2023-08-15T20:57:15.534Z,101301.47
2023-08-15T20:59:39.219Z,101296.78
2023-08-15T21:02:03.141Z,101300.22
2023-08-15T21:04:28.480Z,101303.34
2023-08-15T21:06:53.494Z,101310.06
2023-08-15T21:09:17.198Z,101317.81
2023-08-15T21:11:41.112Z,101311.38
2023-08-15T21:14:04.866Z,101315.00
2023-08-15T21:16:28.600Z,101323.75
2023-08-15T21:18:52.364Z,101321.06
2023-08-15T21:21:17.417Z,101331.75
2023-08-15T21:23:41.050Z,101315.00
2023-08-15T21:26:04.832Z,101322.81
2023-08-15T21:28:28.554Z,101326.72
2023-08-15T21:30:56.431Z,101326.91
2023-08-15T21:33:21.545Z,101322.13
2023-08-15T21:35:45.229Z,101323.63
2023-08-15T21:38:10.286Z,101307.72
2023-08-15T21:40:35.209Z,101317.50
2023-08-15T21:42:58.812Z,101319.88
2023-08-15T21:45:22.457Z,101328.84
2023-08-15T21:47:46.149Z,101327.97
2023-08-15T21:50:11.123Z,101326.94
2023-08-15T21:52:34.751Z,101330.72
2023-08-15T21:54:59.814Z,101326.91
2023-08-15T21:57:23.958Z,101325.22
2023-08-15T21:59:48.136Z,101319.47
2023-08-15T22:02:11.802Z,101314.84
2023-08-15T22:04:35.649Z,101324.41
2023-08-15T22:06:59.271Z,101318.03
2023-08-15T22:09:23.229Z,101325.47
2023-08-15T22:11:48.334Z,101326.41
2023-08-15T22:14:12.034Z,101325.84
2023-08-15T22:16:35.857Z,101327.44
2023-08-15T22:18:59.621Z,101329.91
2023-08-15T22:21:23.333Z,101331.41
2023-08-15T22:23:47.100Z,101324.19
2023-08-15T22:26:13.429Z,101327.53
2023-08-15T22:28:38.451Z,101322.56
2023-08-15T22:31:02.110Z,101325.06
2023-08-15T22:33:25.808Z,101332.28
2023-08-15T22:35:49.410Z,101330.00
2023-08-15T22:38:13.209Z,101344.72
2023-08-15T22:40:36.901Z,101350.22
2023-08-15T22:43:00.761Z,101351.34
2023-08-15T22:45:26.267Z,101346.72
2023-08-15T22:47:50.026Z,101338.09
2023-08-15T22:50:13.640Z,101357.19
2023-08-15T22:52:37.311Z,101357.72
2023-08-15T22:55:00.969Z,101364.09
2023-08-15T22:57:24.980Z,101358.34
2023-08-15T22:59:48.885Z,101360.25
2023-08-15T23:02:14.040Z,101371.03
2023-08-15T23:04:37.773Z,101373.09
2023-08-15T23:07:01.637Z,101375.38
2023-08-15T23:09:25.334Z,101379.53
2023-08-15T23:11:49.314Z,101385.03
2023-08-15T23:14:12.985Z,101393.13
2023-08-15T23:16:36.666Z,101411.19
2023-08-15T23:19:01.684Z,101409.88
2023-08-15T23:21:25.513Z,101409.09
2023-08-15T23:23:49.101Z,101402.63
2023-08-15T23:26:12.760Z,101397.91
2023-08-15T23:28:36.438Z,101377.50
2023-08-15T23:31:00.196Z,101379.69
2023-08-15T23:33:24.476Z,101396.81
2023-08-15T23:35:49.583Z,101414.72
2023-08-15T23:38:13.168Z,101406.88
2023-08-15T23:40:38.017Z,101401.28
2023-08-15T23:43:01.641Z,101396.44
2023-08-15T23:45:25.325Z,101398.84
2023-08-15T23:47:49.044Z,101395.47
2023-08-15T23:50:13.406Z,101397.06
2023-08-15T23:52:38.559Z,101401.59
2023-08-15T23:55:02.296Z,101401.03
2023-08-15T23:57:26.698Z,101399.13
2023-08-15T23:59:50.644Z,101406.63
